KFQD

Rutherford Co - Marchman Field Airport

Rutherfordton, North Carolina, USA
METAR KFQD 172210Z AUTO 18009G16KT 10SM TSRA SCT044 BKN095 OVC110 23/22 A3010 RMK AO2 LTG DSNT SE P0001
Observed Flight Rules
Aug-17 @ 22:10 UTC (27 minutes ago) Visual Flight Rules
Wind Visibility Clouds Conditions
180° at 9 knots
 Gusting to 16 knots
10 miles
  • Scattered at 4,400' AGL
  • Broken at 9,500' AGL
  • Overcast at 11,000' AGL
  • Thunderstorm
  • Rain
Temperatures Readings Precipitation
Current 23°C / 73°F
Dewpoint 22°C / 72°F
Humidity 94%
Altimeter 30.1" Hg
Pressure 1019 hPa
Elevation 329
Current Rain 0.01
METAR KFQD 172210Z AUTO 18009G16KT 10SM TSRA SCT044 BKN095 OVC110 23/22 A3010 RMK AO2 LTG DSNT SE P0001
Observed Flight Rules
Aug-17 @ 22:10 UTC
(27 minutes ago)
VFR
Wind Visibility
180° at 9 knots
 Gusting to 16 knots
10 miles
Clouds
  • Scattered at 4,400' AGL
  • Broken at 9,500' AGL
  • Overcast at 11,000' AGL
Conditions
  • Thunderstorm
  • Rain
Temperature Dewpoint
23°C / 73°F 22°C / 72°F
Humidity Altimeter Pressure
94% 30.1" Hg 1019 hPa
Current Rain
0.01